This is the latest recevied weather packets stored in our database for station/object N0THY. If no packets are shown the sender has not sent any weather packets the latest 10 day(s).
| Time | Temp. | Humidity | Pressure | Rain* | Wind** | Luminosity | Snow |
|---|---|---|---|---|---|---|---|
| 1777142604 | 19.44° C | 15% | 1008.7 hPa | 0 mm | - | - | - |
| 1777141701 | 18.89° C | 16% | 1009 hPa | 0 mm | - | - | - |
| 1777140798 | 18.33° C | 17% | 1009.2 hPa | 0 mm | - | - | - |
| 1777139895 | 18.33° C | 16% | 1009.1 hPa | 0 mm | - | - | - |
| 1777138992 | 18.33° C | 15% | 1009.3 hPa | 0 mm | - | - | - |
| 1777138090 | 18.89° C | 14% | 1009.2 hPa | 0 mm | - | - | - |
| 1777137187 | 18.89° C | 15% | 1009.1 hPa | 0 mm | - | - | - |
| 1777136284 | 18.33° C | 15% | 1009.1 hPa | 0 mm | - | - | - |
| 1777135381 | 17.78° C | 15% | 1009.2 hPa | 0 mm | - | - | - |
| 1777134478 | 17.78° C | 16% | 1009.2 hPa | 0 mm | - | - | - |
| 1777133575 | 17.22° C | 17% | 1009.3 hPa | 0 mm | - | - | - |
| 1777132672 | 16.67° C | 20% | 1009.5 hPa | 0 mm | - | - | - |
| 1777130866 | 14.44° C | 27% | 1009.7 hPa | 0 mm | - | - | - |
| 1777129963 | 14.44° C | 28% | 1009.9 hPa | 0 mm | - | - | - |
| 1777129060 | 12.78° C | 32% | 1010 hPa | 0 mm | - | - | - |
| 1777128157 | 11.67° C | 34% | 1010.1 hPa | 0 mm | - | - | - |
| 1777127254 | 11.67° C | 34% | 1010.2 hPa | 0 mm | - | - | - |
| 1777126351 | 10.56° C | 36% | 1010.1 hPa | 0 mm | - | - | - |
| 1777125448 | 9.44° C | 40% | 1010 hPa | 0 mm | - | - | - |
| 1777124545 | 7.22° C | 46% | 1010 hPa | 0 mm | - | - | - |
| 1777123643 | 7.22° C | 44% | 1009.7 hPa | 0 mm | - | - | - |
| 1777122740 | 7.22° C | 42% | 1009.7 hPa | 0 mm | - | - | - |
| 1777121837 | 7.22° C | 42% | 1009.5 hPa | 0 mm | - | - | - |
| 1777120934 | 7.78° C | 40% | 1009.5 hPa | 0 mm | - | - | - |
| 1777120031 | 8.33° C | 39% | 1009.3 hPa | 0 mm | - | - | - |
* Rain since midnight (hover to see other rain measurements)
** Current wind speed in m/s (hover to see current wind gust speed)